Aviation Photo #0611014 McDonnell Douglas MD-11 - World Airways

[ Medium Large ]
78 of 291
Sponsor Message
Sponsor Message
Landing on Rwy 25 STA 0550 ATA 0656 LEBL 260630Z 32007KT 270V350 9999 FEW025 23/16 Q1019 NOSIG = When was the last time you came to BCN? and the last time you've seen a MD11 at BCN? Nice to see you back :-)
  • Add To Album
  • Like (8)
  • Photog's Choice
  • Cross-Data
    Carlos F
    World Airways
    McDonnell Douglas MD-11
    McDonnell Douglas MD-11
    McDonnell Douglas MD-11
    McDonnell Douglas
    48475
    489
    N804DE
    Barcelona (- El Prat)
    Spain
    June 26, 2004
  • Correction
[ Medium Large ]
Distinct Views: 1,432
Photo Added: July 01, 2004

Explore Other Great Photos